Johnstown, PA

9:24 AM EDT on August 04, 2015 (GMT -0400)
Brownstown | | Change Station
CLOSE
Current Station
Personal Weather Station
Location: Johnstown, PA
Elevation: 1516 ft
Nearby Weather Stations

Elev 1516 ft 40.34 °N, 78.94 °W | Updated 19 seconds ago

Partly Cloudy
Partly Cloudy
65.3 °F
Feels Like 65.3 °F
N
1.5
Wind Variable Wind from ESE
Gusts 2.3 mph

Today
High -- | Low -- °F
--% Chance of Precip.
Yesterday
High -- | Low -- °F
Precip. -- in
6:15 AM 8:27 PM
Waning Gibbous, 77% visible
Pressure 29.96 in
Visibility 9.0 miles
Clouds Scattered Clouds 700 ft
Scattered Clouds 1000 ft
Dew Point 61 °F
Humidity 87%
Rainfall 0.68 in
Snow Depth Not available.
UV 2 out of 12
Pollen 6.40 out of 12
Air Quality Not available.
Flu Activity Not available.
METAR KJST 041254Z AUTO 26012KT 9SM SCT007 SCT010 18/16 A2999 RMK AO2 SLP143 T01830156

More Conditions Fewer Conditions

Pressure 29.96 in
Visibility 9.0 miles
Clouds Scattered Clouds 700 ft
Scattered Clouds 1000 ft
Dew Point 61 °F
Humidity 87%
Rainfall 0.68 in
Snow Depth Not available.
UV 2 out of 12
Pollen 6.40 out of 12
Air Quality Not available.
Flu Activity Not available.
METAR KJST 041254Z AUTO 26012KT 9SM SCT007 SCT010 18/16 A2999 RMK AO2 SLP143 T01830156

More Conditions Fewer Conditions

10-Day Weather Forecast

×

Almanac

Astronomy

Aug. 04, 2015 Rise Set
Actual Time
Civil Twilight
Nautical Twilight
Astronomical Twilight
Moon
Length of Visible Light
Length of Day
Tomorrow will be .
, % of the Moon is Illuminated

Today's Extremes

State Highs State Lows

Community

WunderPhotos

Upload Photos

1,843,917 photos uploaded!

WunderBlogs® & News

Nearby

Air Quality

  Air Quality AQ Index Pollutant
Not available.

Snow Depth

Station Depth Elevation

Earthquake Activity

City Distance Mag. Time & Date
Minimum magnitude displayed is 2.5.

Coastal Water Temperatures

Place Temperature

Stations

Nearby Weather Stations

Station Location Temp. Windchill Dew Point Humidity Wind Precip. Elev Updated Type